^^
Grace C. Lehan Memorial Weather Station Historical Data
Daily Summary for September 8, 2021 Units:  Metric    English   Both
Daily Weekly Monthly Yearly
  High: Low: Average:
Temperature: 2.8 °C -0.3 °C 1.1 °C
Dew Point: -0.7 °C -4.1 °C -2.8 °C
Humidity: 92% 64.3% 76%
Wind Speed: 6.4km/h 0km/h 0.8km/h
Wind Gust: 14.5km/h - -
Wind- - WSW
Pressure: 1020.9 hPa 1010.7 hPa -
Precipitation: 0 mm    
 
 
Tabular Data for September 8, 2021
Time Temperature Dew Point Pressure Wind Wind Speed Wind Gust Humidity Rainfall Rate (Hourly) solar
00:04 0.2 °C -3.7 °C 1020.9 hPa Calm     74.7% 0 mm 0 W/m2
00:09 0.2 °C -3.9 °C 1020.9 hPa Calm     74% 0 mm 0 W/m2
00:14 0.2 °C -3.9 °C 1020.9 hPa Calm     73.8% 0 mm 0 W/m2
00:19 0.2 °C -4.1 °C 1020.9 hPa Calm     73% 0 mm 0 W/m2
00:24 0.2 °C -4.1 °C 1020.9 hPa Calm     73% 0 mm 0 W/m2
00:29 0.2 °C -4.1 °C 1020.9 hPa Calm     72.5% 0 mm 0 W/m2
00:34 0.2 °C -4.1 °C 1020.9 hPa Calm     73% 0 mm 0 W/m2
00:39 0.3 °C -4 °C 1020.9 hPa Calm     73% 0 mm 0 W/m2
00:44 0.3 °C -3.8 °C 1020.9 hPa Calm     73.7% 0 mm 0 W/m2
00:49 0.3 °C -3.7 °C 1020.9 hPa Calm     74.4% 0 mm 0 W/m2
00:54 0.3 °C -3.6 °C 1020.9 hPa Calm     75% 0 mm 0 W/m2
00:59 0.3 °C -3.7 °C 1020.5 hPa Calm     74% 0 mm 0 W/m2
01:04 0.3 °C -3.6 °C 1020.5 hPa Calm     74.6% 0 mm 0 W/m2
01:09 0.3 °C -3.6 °C 1020.5 hPa WSW 0.2 km/h 3.2 km/h 75% 0 mm 0 W/m2
01:14 0.4 °C -3.5 °C 1020.5 hPa Calm   3.2 km/h 75% 0 mm 0 W/m2
01:19 0.4 °C -3.5 °C 1020.5 hPa WSW 0.6 km/h 3.2 km/h 75% 0 mm 0 W/m2
01:24 0.4 °C -3.6 °C 1020.9 hPa WSW 0.3 km/h 3.2 km/h 74.3% 0 mm 0 W/m2
01:29 0.4 °C -3.5 °C 1020.9 hPa Calm   3.2 km/h 74.9% 0 mm 0 W/m2
01:34 0.4 °C -3.5 °C 1020.5 hPa Calm   3.2 km/h 75% 0 mm 0 W/m2
01:39 0.4 °C -3.5 °C 1020.5 hPa WSW 0.5 km/h 4.8 km/h 75% 0 mm 0 W/m2
01:44 0.3 °C -3.6 °C 1020.5 hPa WSW 0.5 km/h 4.8 km/h 75% 0 mm 0 W/m2
01:49 0.3 °C -3.6 °C 1020.5 hPa WSW 0.2 km/h 4.8 km/h 75% 0 mm 0 W/m2
01:54 0.3 °C -3.6 °C 1020.5 hPa WSW 0.2 km/h 4.8 km/h 75% 0 mm 0 W/m2
01:59 0.3 °C -3.6 °C 1020.5 hPa Calm   4.8 km/h 75% 0 mm 0 W/m2
02:04 0.3 °C -3.6 °C 1020.5 hPa WSW 0.3 km/h 4.8 km/h 75% 0 mm 0 W/m2
02:09 0.2 °C -3.7 °C 1020.5 hPa Calm   4.8 km/h 75% 0 mm 0 W/m2
02:14 0.2 °C -3.6 °C 1020.5 hPa Calm   4.8 km/h 75.6% 0 mm 0 W/m2
02:19 0.2 °C -3.6 °C 1020.5 hPa Calm   4.8 km/h 76% 0 mm 0 W/m2
02:24 0.2 °C -3.6 °C 1020.2 hPa Calm   4.8 km/h 76% 0 mm 0 W/m2
02:29 0.1 °C -3.6 °C 1020.2 hPa Calm   4.8 km/h 76% 0 mm 0 W/m2
02:34 0.1 °C -3.4 °C 1020.2 hPa WSW 0.2 km/h 4.8 km/h 77% 0 mm 0 W/m2
02:39 0.1 °C -3.4 °C 1020.2 hPa WSW 0.2 km/h 4.8 km/h 77% 0 mm 0 W/m2
02:44 0.1 °C -3.4 °C 1020.2 hPa West 0.2 km/h 6.4 km/h 77% 0 mm 0 W/m2
02:49 0.1 °C -3.4 °C 1019.9 hPa West 0.8 km/h 6.4 km/h 77% 0 mm 0 W/m2
02:54 0.1 °C -3.4 °C 1019.9 hPa Calm   6.4 km/h 77% 0 mm 0 W/m2
02:59 0.1 °C -3.5 °C 1019.9 hPa Calm   6.4 km/h 77% 0 mm 0 W/m2
03:04 0.1 °C -3.5 °C 1019.9 hPa West 0.2 km/h 6.4 km/h 77% 0 mm 0 W/m2
03:09 0.1 °C -3.5 °C 1019.9 hPa West 0.2 km/h 3.2 km/h 77% 0 mm 0 W/m2
03:14 0.1 °C -3.5 °C 1019.9 hPa West 0.2 km/h 4.8 km/h 77% 0 mm 0 W/m2
03:19 0.1 °C -3.4 °C 1019.5 hPa Calm   4.8 km/h 77.4% 0 mm 0 W/m2
03:24 0.1 °C -3.5 °C 1019.9 hPa West 0.2 km/h 4.8 km/h 77% 0 mm 0 W/m2
03:29 0.1 °C -3.4 °C 1019.9 hPa Calm   4.8 km/h 77.3% 0 mm 0 W/m2
03:34 0.1 °C -3.3 °C 1019.5 hPa Calm   4.8 km/h 78% 0 mm 0 W/m2
03:39 0.1 °C -3.3 °C 1019.9 hPa Calm   1.6 km/h 78% 0 mm 0 W/m2
03:44 0.1 °C -3.3 °C 1019.9 hPa West 0.2 km/h 1.6 km/h 78% 0 mm 0 W/m2
03:49 0.1 °C -3.3 °C 1019.9 hPa Calm   1.6 km/h 78% 0 mm 0 W/m2
03:54 0.1 °C -3.3 °C 1019.9 hPa Calm   1.6 km/h 78% 0 mm 0 W/m2
03:59 0.1 °C -3.3 °C 1019.9 hPa Calm   1.6 km/h 78% 0 mm 0 W/m2
04:00 0.1 °C -3.3 °C 1019.9 hPa Calm   1.6 km/h 78% 0 mm 0 W/m2
04:09 0.1 °C -3.3 °C 1019.9 hPa West 0.2 km/h 1.6 km/h 78% 0 mm 0 W/m2
04:14 0.1 °C -3.3 °C 1019.9 hPa Calm   1.6 km/h 78% 0 mm 0 W/m2
04:19 0.1 °C -3.3 °C 1019.9 hPa Calm   1.6 km/h 78% 0 mm 0 W/m2
04:24 0 °C -3.4 °C 1019.9 hPa Calm   1.6 km/h 77.5% 0 mm 0 W/m2
04:29 0 °C -3.1 °C 1019.9 hPa Calm   1.6 km/h 79.6% 0 mm 0 W/m2
04:34 -0.1 °C -3.4 °C 1019.9 hPa Calm   1.6 km/h 78% 0 mm 0 W/m2
04:39 -0.1 °C -3.4 °C 1020.2 hPa Calm     78% 0 mm 0 W/m2
04:44 -0.1 °C -3.5 °C 1020.2 hPa Calm     78% 0 mm 0 W/m2
04:49 -0.2 °C -3.6 °C 1019.9 hPa Calm     78% 0 mm 0 W/m2
04:54 -0.2 °C -3.6 °C 1019.5 hPa Calm     78% 0 mm 0 W/m2
04:59 -0.2 °C -3.6 °C 1019.9 hPa Calm     78% 0 mm 0 W/m2
05:04 -0.2 °C -3.6 °C 1019.9 hPa Calm     78% 0 mm 0 W/m2
05:09 -0.3 °C -3.7 °C 1020.2 hPa West 0.2 km/h 1.6 km/h 78% 0 mm 0 W/m2
05:14 -0.3 °C -3.7 °C 1020.2 hPa Calm   1.6 km/h 78% 0 mm 0 W/m2
05:19 -0.3 °C -3.6 °C 1020.2 hPa Calm   1.6 km/h 78.4% 0 mm 0 W/m2
05:24 -0.2 °C -3.6 °C 1020.2 hPa Calm   1.6 km/h 78% 0 mm 0 W/m2
05:29 -0.2 °C -3.6 °C 1020.2 hPa Calm   1.6 km/h 78% 0 mm 0 W/m2
05:34 -0.2 °C -3.5 °C 1020.2 hPa Calm   1.6 km/h 78% 0 mm 0 W/m2
05:39 -0.1 °C -3.5 °C 1020.2 hPa Calm   1.6 km/h 78% 0 mm 0 W/m2
05:44 -0.1 °C -3.4 °C 1020.2 hPa Calm   1.6 km/h 78% 0 mm 0 W/m2
05:49 0 °C -3.4 °C 1020.2 hPa Calm   1.6 km/h 78% 0 mm 0 W/m2
05:54 0 °C -3.3 °C 1020.2 hPa Calm   1.6 km/h 78% 0 mm 0 W/m2
05:59 0.1 °C -3.3 °C 1020.2 hPa Calm   1.6 km/h 78% 0 mm 0 W/m2
06:04 0.1 °C -3.3 °C 1019.9 hPa Calm   1.6 km/h 78% 0 mm 0 W/m2
06:09 0.1 °C -3.4 °C 1019.9 hPa Calm   1.6 km/h 77.3% 0 mm 0 W/m2
06:14 0.2 °C -3.2 °C 1019.9 hPa Calm   1.6 km/h 78% 0 mm 0 W/m2
06:19 0.2 °C -3.3 °C 1019.9 hPa Calm   1.6 km/h 77.4% 0 mm 0 W/m2
06:24 0.2 °C -3.4 °C 1019.9 hPa Calm   1.6 km/h 77% 0 mm 0 W/m2
06:29 0.2 °C -3.4 °C 1019.9 hPa Calm   1.6 km/h 77% 0 mm 0 W/m2
06:34 0.2 °C -3.4 °C 1019.9 hPa Calm   1.6 km/h 77% 0 mm 0 W/m2
06:39 0.2 °C -3.4 °C 1019.9 hPa Calm     77% 0 mm 0 W/m2
06:44 0.2 °C -3.4 °C 1019.9 hPa West 0.3 km/h 4.8 km/h 77% 0 mm 0 W/m2
06:49 0.2 °C -3.4 °C 1019.9 hPa Calm   4.8 km/h 77% 0 mm 0 W/m2
06:54 0.2 °C -3.4 °C 1019.9 hPa West 0.2 km/h 4.8 km/h 77% 0 mm 0 W/m2
06:59 0.1 °C -3.4 °C 1019.9 hPa West 0.2 km/h 4.8 km/h 77% 0 mm 0 W/m2
07:04 0.1 °C -3.4 °C 1020.2 hPa West 0.3 km/h 4.8 km/h 77% 0 mm 0 W/m2
07:09 0.1 °C -3.4 °C 1020.2 hPa Calm   3.2 km/h 77.4% 0 mm 0 W/m2
07:14 0.1 °C -3.3 °C 1019.9 hPa Calm   3.2 km/h 77.7% 0 mm 0 W/m2
07:19 0.1 °C -3.4 °C 1019.9 hPa West 0.2 km/h 3.2 km/h 77.3% 0 mm 0 W/m2
07:24 0.2 °C -3.4 °C 1019.9 hPa Calm   3.2 km/h 77% 0 mm 7 W/m2
07:29 0.2 °C -3.4 °C 1019.9 hPa West 0.3 km/h 3.2 km/h 77% 0 mm 9 W/m2
07:34 0.2 °C -3.4 °C 1019.9 hPa Calm   3.2 km/h 77% 0 mm 11 W/m2
07:39 0.2 °C -3.3 °C 1019.9 hPa West 0.2 km/h 1.6 km/h 77% 0 mm 14 W/m2
07:44 0.2 °C -3.3 °C 1019.9 hPa Calm   1.6 km/h 77% 0 mm 14 W/m2
07:49 0.3 °C -3.3 °C 1019.9 hPa West 0.2 km/h 3.2 km/h 77% 0 mm 16 W/m2
07:54 0.3 °C -3.3 °C 1019.9 hPa Calm   3.2 km/h 76.7% 0 mm 18 W/m2
07:59 0.3 °C -3.4 °C 1019.9 hPa West 0.2 km/h 4.8 km/h 76% 0 mm 16 W/m2
08:09 0.4 °C -3.3 °C 1019.5 hPa Calm     76% 0 mm 26 W/m2
08:14 0.5 °C -3.3 °C 1019.5 hPa Calm     75.3% 0 mm 32 W/m2
08:19 0.6 °C -3.2 °C 1019.5 hPa Calm     75.7% 0 mm 33 W/m2
08:24 0.6 °C -3.1 °C 1019.5 hPa Calm     76% 0 mm 33 W/m2
08:29 0.7 °C -3.2 °C 1019.5 hPa West 0.2 km/h 3.2 km/h 75.3% 0 mm 42 W/m2
08:34 0.7 °C -3.2 °C 1019.5 hPa Calm   3.2 km/h 75% 0 mm 40 W/m2
08:39 0.8 °C -3.2 °C 1019.2 hPa WNW 1 km/h 8 km/h 74.8% 0 mm 53 W/m2
08:44 0.8 °C -3.3 °C 1019.2 hPa WNW 0.5 km/h 8 km/h 74% 0 mm 56 W/m2
08:49 0.9 °C -3.2 °C 1018.8 hPa Calm   8 km/h 74% 0 mm 56 W/m2
08:54 0.9 °C -3.2 °C 1018.8 hPa NW 0.2 km/h 8 km/h 73.8% 0 mm 56 W/m2
08:59 0.9 °C -3.2 °C 1018.8 hPa NW 0.2 km/h 8 km/h 73.6% 0 mm 77 W/m2
09:04 1 °C -3.3 °C 1019.2 hPa NW 0.2 km/h 8 km/h 73.2% 0 mm 76 W/m2
09:09 1.1 °C -3.3 °C 1018.8 hPa NW 0.2 km/h 3.2 km/h 73% 0 mm 69 W/m2
09:14 1.1 °C -3.2 °C 1018.8 hPa Calm   3.2 km/h 73% 0 mm 113 W/m2
09:19 1.2 °C -3.2 °C 1018.8 hPa NNE 1.1 km/h 8 km/h 72.5% 0 mm 139 W/m2
09:24 1.2 °C -3.2 °C 1018.5 hPa NE 0.8 km/h 8 km/h 72.1% 0 mm 153 W/m2
09:29 1.3 °C -3.2 °C 1018.5 hPa Calm   8 km/h 72% 0 mm 155 W/m2
09:34 1.4 °C -3 °C 1018.5 hPa Calm   8 km/h 72.4% 0 mm 149 W/m2
09:39 1.6 °C -3 °C 1018.5 hPa NE 1 km/h 4.8 km/h 71.5% 0 mm 149 W/m2
09:44 1.7 °C -3.1 °C 1018.5 hPa NNE 1.6 km/h 4.8 km/h 70.5% 0 mm 137 W/m2
09:49 1.8 °C -3.3 °C 1018.5 hPa NNE 0.8 km/h 4.8 km/h 69% 0 mm 146 W/m2
09:54 1.9 °C -3.1 °C 1018.5 hPa Calm   4.8 km/h 69.5% 0 mm 155 W/m2
09:59 2.1 °C -3.1 °C 1018.5 hPa NNE 0.3 km/h 6.4 km/h 68.7% 0 mm 149 W/m2
10:04 2.2 °C -3 °C 1018.5 hPa Calm   6.4 km/h 68.5% 0 mm 146 W/m2
10:09 2.3 °C -3.1 °C 1018.2 hPa NNE 0.6 km/h 4.8 km/h 67.5% 0 mm 134 W/m2
10:14 2.3 °C -3.2 °C 1018.2 hPa NNE 1.3 km/h 8 km/h 67% 0 mm 137 W/m2
10:19 2.3 °C -3.4 °C 1017.8 hPa NE 1 km/h 8 km/h 66.2% 0 mm 132 W/m2
10:24 2.3 °C -3.3 °C 1017.8 hPa NE 0.8 km/h 8 km/h 66.7% 0 mm 135 W/m2
10:29 2.3 °C -3 °C 1017.5 hPa NNE 0.3 km/h 8 km/h 67.7% 0 mm 130 W/m2
10:34 2.4 °C -3.1 °C 1017.5 hPa NNE 2.4 km/h 9.7 km/h 67% 0 mm 121 W/m2
10:39 2.4 °C -3.2 °C 1017.5 hPa NE 0.2 km/h 9.7 km/h 66.3% 0 mm 107 W/m2
10:44 2.5 °C -3.2 °C 1017.5 hPa Calm   9.7 km/h 66.2% 0 mm 104 W/m2
10:49 2.5 °C -3.2 °C 1017.2 hPa NE 0.5 km/h 9.7 km/h 66% 0 mm 118 W/m2
10:54 2.5 °C -3.2 °C 1017.2 hPa NE 0.2 km/h 9.7 km/h 66% 0 mm 118 W/m2
10:59 2.5 °C -3.2 °C 1017.2 hPa NE 0.8 km/h 9.7 km/h 65.9% 0 mm 72 W/m2
11:04 2.5 °C -3.6 °C 1016.8 hPa NE 0.5 km/h 9.7 km/h 64.3% 0 mm 93 W/m2
11:09 2.5 °C -3.4 °C 1016.8 hPa NE 0.6 km/h 4.8 km/h 65% 0 mm 104 W/m2
11:14 2.5 °C -3.4 °C 1016.8 hPa Calm   4.8 km/h 65% 0 mm 109 W/m2
11:19 2.6 °C -3.2 °C 1016.5 hPa Calm   4.8 km/h 66% 0 mm 111 W/m2
11:24 2.6 °C -3.1 °C 1016.5 hPa NE 1 km/h 4.8 km/h 66.1% 0 mm 105 W/m2
11:29 2.7 °C -3.2 °C 1016.5 hPa Calm   4.8 km/h 65.4% 0 mm 86 W/m2
11:34 2.7 °C -3.1 °C 1016.1 hPa NE 0.5 km/h 4.8 km/h 65.6% 0 mm 83 W/m2
11:39 2.7 °C -3.1 °C 1015.8 hPa NNE 0.2 km/h 3.2 km/h 65.5% 0 mm 79 W/m2
11:44 2.7 °C -3.1 °C 1015.8 hPa NNE 1 km/h 4.8 km/h 65.5% 0 mm 72 W/m2
11:49 2.7 °C -3.2 °C 1015.8 hPa Calm   4.8 km/h 65% 0 mm 81 W/m2
11:54 2.7 °C -3.1 °C 1015.5 hPa North 1.4 km/h 9.7 km/h 65.7% 0 mm 93 W/m2
11:59 2.7 °C -3.2 °C 1015.5 hPa North 1 km/h 9.7 km/h 65% 0 mm 123 W/m2
12:09 2.7 °C -3.2 °C 1015.1 hPa North 1.1 km/h 14.5 km/h 65% 0 mm 125 W/m2
12:14 2.7 °C -3.2 °C 1015.1 hPa NW 1.1 km/h 14.5 km/h 65% 0 mm 107 W/m2
12:19 2.8 °C -3.1 °C 1014.8 hPa NNE 1 km/h 14.5 km/h 65.5% 0 mm 79 W/m2
12:24 2.8 °C -3 °C 1014.8 hPa NNE 0.5 km/h 14.5 km/h 65.7% 0 mm 60 W/m2
12:29 2.7 °C -3.2 °C 1014.4 hPa NNE 1 km/h 14.5 km/h 65% 0 mm 70 W/m2
12:34 2.7 °C -3.1 °C 1014.4 hPa NNE 0.6 km/h 14.5 km/h 65.9% 0 mm 91 W/m2
12:39 2.6 °C -3.1 °C 1014.4 hPa NE 2.3 km/h 11.3 km/h 66% 0 mm 105 W/m2
12:44 2.5 °C -3.2 °C 1014.1 hPa NE 1.3 km/h 11.3 km/h 66% 0 mm 97 W/m2
12:49 2.4 °C -3.1 °C 1014.1 hPa NE 1.1 km/h 11.3 km/h 67.1% 0 mm 81 W/m2
12:54 2.5 °C -2.9 °C 1014.1 hPa NE 0.6 km/h 11.3 km/h 67.3% 0 mm 90 W/m2
12:59 2.6 °C -2.9 °C 1013.8 hPa NE 0.2 km/h 11.3 km/h 67.3% 0 mm 90 W/m2
13:04 2.6 °C -2.6 °C 1013.8 hPa NE 1.6 km/h 11.3 km/h 68.7% 0 mm 67 W/m2
13:09 2.6 °C -2.9 °C 1013.8 hPa NE 1.8 km/h 8 km/h 66.6% 0 mm 86 W/m2
13:14 2.6 °C -2.9 °C 1013.8 hPa NNE 0.8 km/h 8 km/h 67% 0 mm 100 W/m2
13:19 2.6 °C -2.8 °C 1013.8 hPa North 0.5 km/h 8 km/h 67.7% 0 mm 111 W/m2
13:24 2.6 °C -2.7 °C 1014.1 hPa Calm   8 km/h 68.3% 0 mm 107 W/m2
13:29 2.6 °C -2.6 °C 1013.8 hPa NNE 0.8 km/h 8 km/h 68.8% 0 mm 79 W/m2
13:34 2.6 °C -2.8 °C 1013.8 hPa NNE 0.5 km/h 8 km/h 67.5% 0 mm 72 W/m2
13:39 2.6 °C -2.9 °C 1013.8 hPa NE 1.6 km/h 6.4 km/h 66.9% 0 mm 76 W/m2
13:44 2.6 °C -2.9 °C 1013.8 hPa NE 0.2 km/h 6.4 km/h 67.1% 0 mm 70 W/m2
13:49 2.6 °C -2.8 °C 1013.4 hPa NNE 2.6 km/h 8 km/h 67.9% 0 mm 49 W/m2
13:54 2.6 °C -2.7 °C 1013.1 hPa North 1.1 km/h 8 km/h 68% 0 mm 46 W/m2
13:59 2.6 °C -2.6 °C 1013.1 hPa North 1 km/h 8 km/h 68.9% 0 mm 42 W/m2
14:04 2.6 °C -2.6 °C 1012.8 hPa North 1.9 km/h 9.7 km/h 68.6% 0 mm 42 W/m2
14:09 2.6 °C -2.7 °C 1012.8 hPa North 0.8 km/h 9.7 km/h 68.5% 0 mm 44 W/m2
14:14 2.5 °C -2.8 °C 1012.8 hPa NNE 0.3 km/h 9.7 km/h 68% 0 mm 46 W/m2
14:19 2.5 °C -2.7 °C 1012.8 hPa NNW 1.8 km/h 9.7 km/h 68.7% 0 mm 35 W/m2
14:24 2.5 °C -2.6 °C 1012.8 hPa NNW 1.3 km/h 9.7 km/h 69% 0 mm 32 W/m2
14:29 2.4 °C -2.7 °C 1012.4 hPa NNW 1.8 km/h 9.7 km/h 69% 0 mm 26 W/m2
14:34 2.4 °C -2.7 °C 1012.4 hPa NNW 1.1 km/h 9.7 km/h 69% 0 mm 25 W/m2
14:39 2.4 °C -2.7 °C 1012.1 hPa NNW 4.2 km/h 14.5 km/h 69% 0 mm 28 W/m2
14:44 2.3 °C -2.7 °C 1012.1 hPa NNW 1.4 km/h 14.5 km/h 69% 0 mm 25 W/m2
14:49 2.3 °C -2.8 °C 1012.1 hPa NNW 1.8 km/h 14.5 km/h 69% 0 mm 26 W/m2
14:54 2.3 °C -2.6 °C 1012.1 hPa NNW 1.4 km/h 14.5 km/h 69.9% 0 mm 19 W/m2
14:59 2.3 °C -2.6 °C 1012.1 hPa NW 2.3 km/h 14.5 km/h 70% 0 mm 19 W/m2
15:04 2.3 °C -2.7 °C 1011.7 hPa NNW 0.8 km/h 14.5 km/h 70% 0 mm 19 W/m2
15:09 2.2 °C -2.7 °C 1011.7 hPa ENE 1 km/h 6.4 km/h 70% 0 mm 26 W/m2
15:14 2.2 °C -2.7 °C 1011.7 hPa NE 0.2 km/h 6.4 km/h 70% 0 mm 26 W/m2
15:19 2.2 °C -2.7 °C 1011.7 hPa ENE 0.2 km/h 6.4 km/h 70% 0 mm 23 W/m2
15:24 2.2 °C -2.7 °C 1011.7 hPa NNW 2.9 km/h 11.3 km/h 70.2% 0 mm 18 W/m2
15:29 2.2 °C -2.7 °C 1011.7 hPa NNW 0.8 km/h 11.3 km/h 70% 0 mm 9 W/m2
15:34 2.2 °C -2.7 °C 1011.7 hPa NNW 2.6 km/h 11.3 km/h 70% 0 mm 9 W/m2
15:39 2.2 °C -2.7 °C 1011.7 hPa NNW 1.9 km/h 8 km/h 70% 0 mm 7 W/m2
15:44 2.2 °C -2.7 °C 1011.7 hPa NNW 0.8 km/h 8 km/h 70% 0 mm 7 W/m2
15:49 2.2 °C -2.7 °C 1011.7 hPa NNW 1.6 km/h 8 km/h 70% 0 mm 7 W/m2
15:54 2.2 °C -2.7 °C 1011.7 hPa NNW 0.5 km/h 8 km/h 70% 0 mm 7 W/m2
15:59 2.2 °C -2.6 °C 1011.7 hPa Calm   8 km/h 70.5% 0 mm 7 W/m2
16:00 2.2 °C -2.5 °C 1011.7 hPa Calm   8 km/h 71% 0 mm 0 W/m2
16:09 2.2 °C -2.6 °C 1011.7 hPa NNW 1.3 km/h 11.3 km/h 70.2% 0 mm 0 W/m2
16:14 2.2 °C -2.7 °C 1011.7 hPa NNW 2.4 km/h 11.3 km/h 70% 0 mm 0 W/m2
16:19 2.2 °C -2.6 °C 1011.7 hPa NNW 1.3 km/h 11.3 km/h 71% 0 mm 0 W/m2
16:24 2.1 °C -2.6 °C 1011.7 hPa NNW 1.4 km/h 11.3 km/h 71% 0 mm 0 W/m2
16:29 2.1 °C -2.6 °C 1011.7 hPa NW 2.4 km/h 11.3 km/h 71% 0 mm 0 W/m2
16:34 2.1 °C -2.7 °C 1011.7 hPa NW 3.7 km/h 11.3 km/h 71% 0 mm 0 W/m2
16:39 2 °C -2.7 °C 1011.7 hPa NW 3.9 km/h 14.5 km/h 71% 0 mm 0 W/m2
16:44 1.9 °C -2.6 °C 1011.7 hPa NW 0.6 km/h 14.5 km/h 71.9% 0 mm 0 W/m2
16:49 1.9 °C -2.5 °C 1011.7 hPa NNW 2.7 km/h 14.5 km/h 72.5% 0 mm 0 W/m2
16:54 1.9 °C -2.4 °C 1011.7 hPa NNW 1.8 km/h 14.5 km/h 73% 0 mm 0 W/m2
16:59 1.9 °C -2.4 °C 1011.7 hPa NNW 3.2 km/h 14.5 km/h 73% 0 mm 0 W/m2
17:04 1.9 °C -2.4 °C 1011.7 hPa NNW 0.3 km/h 14.5 km/h 73% 0 mm 0 W/m2
17:09 1.8 °C -2.4 °C 1011.7 hPa NNW 1.8 km/h 9.7 km/h 73.4% 0 mm 0 W/m2
17:14 1.8 °C -2.3 °C 1011.7 hPa NNW 0.5 km/h 9.7 km/h 74% 0 mm 0 W/m2
17:19 1.8 °C -2.2 °C 1011.7 hPa NNW 3.1 km/h 9.7 km/h 74.9% 0 mm 0 W/m2
17:24 1.8 °C -2.1 °C 1011.7 hPa NNW 2.9 km/h 14.5 km/h 75.5% 0 mm 0 W/m2
17:29 1.8 °C -1.8 °C 1011.7 hPa NNW 2.7 km/h 14.5 km/h 77.2% 0 mm 0 W/m2
17:34 1.7 °C -1.7 °C 1011.7 hPa NNW 2.9 km/h 14.5 km/h 78.1% 0 mm 0 W/m2
17:39 1.6 °C -1.6 °C 1011.7 hPa NNW 1.9 km/h 9.7 km/h 79.3% 0 mm 0 W/m2
17:44 1.6 °C -1.4 °C 1011.7 hPa NNW 1.6 km/h 9.7 km/h 80.5% 0 mm 0 W/m2
17:49 1.4 °C -1.4 °C 1011.4 hPa NW 4.5 km/h 11.3 km/h 81.4% 0 mm 0 W/m2
17:54 1.3 °C -1.3 °C 1011.7 hPa NNW 4 km/h 11.3 km/h 82.6% 0 mm 0 W/m2
17:59 1.2 °C -1.3 °C 1011.4 hPa NNW 3.7 km/h 11.3 km/h 83.2% 0 mm 0 W/m2
18:04 1.1 °C -1.3 °C 1011.4 hPa NNW 3.1 km/h 11.3 km/h 84% 0 mm 0 W/m2
18:09 1.1 °C -1.3 °C 1011.4 hPa NNW 1.3 km/h 11.3 km/h 84.5% 0 mm 0 W/m2
18:14 1 °C -1.2 °C 1011.1 hPa NNW 1 km/h 11.3 km/h 85% 0 mm 0 W/m2
18:19 1 °C -1.1 °C 1011.1 hPa NNW 1.3 km/h 11.3 km/h 85.9% 0 mm 0 W/m2
18:24 1 °C -0.9 °C 1011.1 hPa NNW 3.5 km/h 14.5 km/h 87% 0 mm 0 W/m2
18:29 1 °C -0.9 °C 1011.1 hPa NW 1.4 km/h 14.5 km/h 86.9% 0 mm 0 W/m2
18:34 1 °C -0.9 °C 1011.1 hPa NNW 3.5 km/h 14.5 km/h 87% 0 mm 0 W/m2
18:39 1 °C -0.9 °C 1010.7 hPa NNW 1.9 km/h 14.5 km/h 87% 0 mm 0 W/m2
18:44 1 °C -0.8 °C 1011.1 hPa NNW 0.5 km/h 14.5 km/h 88% 0 mm 0 W/m2
18:49 1.1 °C -0.7 °C 1011.1 hPa NNW 1.8 km/h 14.5 km/h 88% 0 mm 0 W/m2
18:54 1.1 °C -0.7 °C 1011.1 hPa NNW 1.6 km/h 14.5 km/h 88% 0 mm 0 W/m2
18:59 1.1 °C -0.7 °C 1011.1 hPa North 1.9 km/h 14.5 km/h 88% 0 mm 0 W/m2
19:04 1 °C -0.8 °C 1011.1 hPa North 3.2 km/h 14.5 km/h 88% 0 mm 0 W/m2
19:09 0.9 °C -0.7 °C 1011.1 hPa NNW 1.3 km/h 11.3 km/h 88.7% 0 mm 0 W/m2
19:14 0.9 °C -0.7 °C 1011.1 hPa NNW 3.1 km/h 11.3 km/h 89% 0 mm 0 W/m2
19:19 0.8 °C -0.8 °C 1011.1 hPa NNW 1.8 km/h 11.3 km/h 89% 0 mm 0 W/m2
19:24 0.7 °C -0.9 °C 1011.1 hPa NNW 1.4 km/h 11.3 km/h 89% 0 mm 0 W/m2
19:29 0.7 °C -0.8 °C 1011.1 hPa NNW 1.8 km/h 11.3 km/h 89.5% 0 mm 0 W/m2
19:34 0.6 °C -0.8 °C 1011.1 hPa Calm   11.3 km/h 90% 0 mm 0 W/m2
19:39 0.6 °C -0.8 °C 1011.1 hPa NNW 1.3 km/h 6.4 km/h 90% 0 mm 0 W/m2
19:44 0.6 °C -0.9 °C 1011.1 hPa NNW 2.6 km/h 11.3 km/h 90% 0 mm 0 W/m2
19:49 0.5 °C -0.9 °C 1011.1 hPa NNW 1 km/h 11.3 km/h 90% 0 mm 0 W/m2
19:54 0.5 °C -0.9 °C 1011.1 hPa NNW 0.2 km/h 11.3 km/h 90.1% 0 mm 0 W/m2
19:59 0.4 °C -0.8 °C 1011.1 hPa NW 2.7 km/h 11.3 km/h 91% 0 mm 0 W/m2
20:00 0.4 °C -0.8 °C 1011.1 hPa NW 6.4 km/h 11.3 km/h 91% 0 mm 0 W/m2
20:09 0.4 °C -0.9 °C 1011.1 hPa NW 1.4 km/h 6.4 km/h 91% 0 mm 0 W/m2
20:14 0.4 °C -0.9 °C 1011.1 hPa NW 1.1 km/h 8 km/h 91% 0 mm 0 W/m2
20:19 0.3 °C -0.9 °C 1011.1 hPa NW 3.1 km/h 9.7 km/h 91% 0 mm 0 W/m2
20:24 0.3 °C -1 °C 1011.1 hPa NW 1.9 km/h 9.7 km/h 91% 0 mm 0 W/m2
20:29 0.3 °C -0.9 °C 1011.1 hPa NW 0.3 km/h 9.7 km/h 91.7% 0 mm 0 W/m2
20:34 0.3 °C -0.9 °C 1011.1 hPa NW 1.6 km/h 9.7 km/h 91.9% 0 mm 0 W/m2
20:39 0.3 °C -0.9 °C 1011.1 hPa NW 1.4 km/h 8 km/h 91.8% 0 mm 0 W/m2
20:44 0.3 °C -0.9 °C 1011.1 hPa NW 1.8 km/h 8 km/h 92% 0 mm 0 W/m2
20:49 0.3 °C -0.9 °C 1011.1 hPa NW 0.2 km/h 8 km/h 92% 0 mm 0 W/m2
20:54 0.2 °C -0.9 °C 1011.1 hPa NNW 1.9 km/h 9.7 km/h 92% 0 mm 0 W/m2
20:59 0.2 °C -0.9 °C 1011.1 hPa NNW 0.3 km/h 9.7 km/h 92% 0 mm 0 W/m2
21:04 0.2 °C -0.9 °C 1011.1 hPa NNW 0.5 km/h 9.7 km/h 92% 0 mm 0 W/m2
21:09 0.2 °C -0.9 °C 1011.1 hPa NNW 1.4 km/h 8 km/h 92% 0 mm 0 W/m2
21:14 0.2 °C -1 °C 1011.1 hPa NNW 1.9 km/h 8 km/h 92% 0 mm 0 W/m2
21:19 0.2 °C -1 °C 1011.1 hPa NNW 0.5 km/h 8 km/h 92% 0 mm 0 W/m2
21:24 0.1 °C -1.1 °C 1011.1 hPa NNW 3.4 km/h 9.7 km/h 92% 0 mm 0 W/m2
21:29 0.1 °C -1.1 °C 1011.1 hPa NNW 1 km/h 9.7 km/h 92% 0 mm 0 W/m2
21:33 0.1 °C -1.1 °C 1011.1 hPa NNW 0.2 km/h 9.7 km/h 92% 0 mm 0 W/m2
Hartford County Weather
Compliments of Weather Underground - 4 mb